sensor_id;sensor_type;location;lat;lon;timestamp;P1;durP1;ratioP1;P2;durP2;ratioP2
24259;SDS011;12384;48.112;18.418;2022-07-23T00:00:05;12.77;;;11.87;;
24259;SDS011;12384;48.112;18.418;2022-07-23T00:02:35;13.27;;;12.27;;
24259;SDS011;12384;48.112;18.418;2022-07-23T00:05:04;12.37;;;11.57;;
24259;SDS011;12384;48.112;18.418;2022-07-23T00:07:33;11.93;;;11.13;;
24259;SDS011;12384;48.112;18.418;2022-07-23T00:10:02;11.80;;;11.00;;
24259;SDS011;12384;48.112;18.418;2022-07-23T00:12:33;11.50;;;10.70;;
24259;SDS011;12384;48.112;18.418;2022-07-23T00:15:02;12.17;;;11.37;;
24259;SDS011;12384;48.112;18.418;2022-07-23T00:17:32;12.60;;;11.67;;
24259;SDS011;12384;48.112;18.418;2022-07-23T00:20:01;11.93;;;11.13;;
24259;SDS011;12384;48.112;18.418;2022-07-23T00:22:31;12.27;;;11.37;;
24259;SDS011;12384;48.112;18.418;2022-07-23T00:25:00;12.53;;;11.50;;
24259;SDS011;12384;48.112;18.418;2022-07-23T00:27:50;12.40;;;11.60;;
24259;SDS011;12384;48.112;18.418;2022-07-23T00:30:19;12.40;;;11.50;;
24259;SDS011;12384;48.112;18.418;2022-07-23T00:32:48;11.90;;;11.20;;
24259;SDS011;12384;48.112;18.418;2022-07-23T00:35:23;12.17;;;11.37;;
24259;SDS011;12384;48.112;18.418;2022-07-23T00:37:53;12.83;;;11.83;;
24259;SDS011;12384;48.112;18.418;2022-07-23T00:40:22;12.60;;;11.80;;
24259;SDS011;12384;48.112;18.418;2022-07-23T00:42:56;12.10;;;11.30;;
24259;SDS011;12384;48.112;18.418;2022-07-23T00:45:26;12.00;;;11.10;;
24259;SDS011;12384;48.112;18.418;2022-07-23T00:47:55;13.77;;;12.67;;
24259;SDS011;12384;48.112;18.418;2022-07-23T00:50:24;13.20;;;12.00;;
24259;SDS011;12384;48.112;18.418;2022-07-23T00:52:53;13.17;;;11.93;;
24259;SDS011;12384;48.112;18.418;2022-07-23T00:55:23;12.67;;;11.87;;
24259;SDS011;12384;48.112;18.418;2022-07-23T00:57:52;13.60;;;12.27;;
24259;SDS011;12384;48.112;18.418;2022-07-23T01:00:23;12.23;;;11.40;;
24259;SDS011;12384;48.112;18.418;2022-07-23T01:02:52;12.80;;;12.00;;
24259;SDS011;12384;48.112;18.418;2022-07-23T01:05:21;13.17;;;12.23;;
24259;SDS011;12384;48.112;18.418;2022-07-23T01:07:50;12.60;;;11.80;;
24259;SDS011;12384;48.112;18.418;2022-07-23T01:10:22;12.90;;;12.10;;
24259;SDS011;12384;48.112;18.418;2022-07-23T01:13:03;13.33;;;12.47;;
24259;SDS011;12384;48.112;18.418;2022-07-23T01:15:36;12.47;;;11.73;;
24259;SDS011;12384;48.112;18.418;2022-07-23T01:18:07;12.30;;;11.43;;
24259;SDS011;12384;48.112;18.418;2022-07-23T01:20:37;12.47;;;11.67;;
24259;SDS011;12384;48.112;18.418;2022-07-23T01:23:09;13.17;;;12.17;;
24259;SDS011;12384;48.112;18.418;2022-07-23T01:25:47;11.67;;;10.97;;
24259;SDS011;12384;48.112;18.418;2022-07-23T01:28:17;12.10;;;11.40;;
24259;SDS011;12384;48.112;18.418;2022-07-23T01:30:46;13.70;;;12.80;;
24259;SDS011;12384;48.112;18.418;2022-07-23T01:33:15;11.83;;;11.13;;
24259;SDS011;12384;48.112;18.418;2022-07-23T01:35:44;13.37;;;12.57;;
24259;SDS011;12384;48.112;18.418;2022-07-23T01:38:19;11.63;;;10.93;;
24259;SDS011;12384;48.112;18.418;2022-07-23T01:40:48;11.90;;;11.20;;
24259;SDS011;12384;48.112;18.418;2022-07-23T01:43:25;13.47;;;12.67;;
24259;SDS011;12384;48.112;18.418;2022-07-23T01:45:54;13.17;;;12.30;;
24259;SDS011;12384;48.112;18.418;2022-07-23T01:48:29;12.53;;;11.63;;
24259;SDS011;12384;48.112;18.418;2022-07-23T01:51:30;12.90;;;12.00;;
24259;SDS011;12384;48.112;18.418;2022-07-23T01:54:08;12.07;;;11.27;;
24259;SDS011;12384;48.112;18.418;2022-07-23T01:56:37;13.33;;;12.23;;
24259;SDS011;12384;48.112;18.418;2022-07-23T01:59:06;12.83;;;12.03;;
24259;SDS011;12384;48.112;18.418;2022-07-23T02:01:35;12.33;;;11.53;;
24259;SDS011;12384;48.112;18.418;2022-07-23T02:04:04;12.40;;;11.60;;
24259;SDS011;12384;48.112;18.418;2022-07-23T02:06:33;12.57;;;11.77;;
24259;SDS011;12384;48.112;18.418;2022-07-23T02:09:02;12.50;;;11.80;;
24259;SDS011;12384;48.112;18.418;2022-07-23T02:11:33;13.20;;;12.23;;
24259;SDS011;12384;48.112;18.418;2022-07-23T02:14:02;12.93;;;12.10;;
24259;SDS011;12384;48.112;18.418;2022-07-23T02:16:31;12.50;;;11.70;;
24259;SDS011;12384;48.112;18.418;2022-07-23T02:19:01;12.40;;;11.60;;
24259;SDS011;12384;48.112;18.418;2022-07-23T02:21:30;12.90;;;12.00;;
24259;SDS011;12384;48.112;18.418;2022-07-23T02:23:59;12.70;;;11.80;;
24259;SDS011;12384;48.112;18.418;2022-07-23T02:26:28;12.77;;;11.97;;
24259;SDS011;12384;48.112;18.418;2022-07-23T02:29:02;12.43;;;11.70;;
24259;SDS011;12384;48.112;18.418;2022-07-23T02:31:32;12.90;;;12.10;;
24259;SDS011;12384;48.112;18.418;2022-07-23T02:34:01;12.60;;;11.90;;
24259;SDS011;12384;48.112;18.418;2022-07-23T02:36:31;12.13;;;11.23;;
24259;SDS011;12384;48.112;18.418;2022-07-23T02:39:02;13.13;;;12.17;;
24259;SDS011;12384;48.112;18.418;2022-07-23T02:41:33;12.43;;;11.40;;
24259;SDS011;12384;48.112;18.418;2022-07-23T02:44:03;13.10;;;12.20;;
24259;SDS011;12384;48.112;18.418;2022-07-23T02:46:33;13.23;;;12.20;;
24259;SDS011;12384;48.112;18.418;2022-07-23T02:49:02;13.03;;;12.13;;
24259;SDS011;12384;48.112;18.418;2022-07-23T02:51:32;12.60;;;11.80;;
24259;SDS011;12384;48.112;18.418;2022-07-23T02:54:05;13.10;;;12.20;;
24259;SDS011;12384;48.112;18.418;2022-07-23T02:56:35;13.27;;;12.37;;
24259;SDS011;12384;48.112;18.418;2022-07-23T02:59:05;12.23;;;11.43;;
24259;SDS011;12384;48.112;18.418;2022-07-23T03:01:34;13.27;;;12.30;;
24259;SDS011;12384;48.112;18.418;2022-07-23T03:04:03;12.80;;;11.90;;
24259;SDS011;12384;48.112;18.418;2022-07-23T03:06:32;12.63;;;11.83;;
24259;SDS011;12384;48.112;18.418;2022-07-23T03:09:00;13.47;;;12.57;;
24259;SDS011;12384;48.112;18.418;2022-07-23T03:11:30;13.97;;;12.93;;
24259;SDS011;12384;48.112;18.418;2022-07-23T03:13:59;13.17;;;12.37;;
24259;SDS011;12384;48.112;18.418;2022-07-23T03:16:29;13.40;;;12.43;;
24259;SDS011;12384;48.112;18.418;2022-07-23T03:18:58;13.10;;;12.30;;
24259;SDS011;12384;48.112;18.418;2022-07-23T03:21:32;12.90;;;12.10;;
24259;SDS011;12384;48.112;18.418;2022-07-23T03:24:01;12.87;;;12.03;;
24259;SDS011;12384;48.112;18.418;2022-07-23T03:26:30;12.60;;;11.80;;
24259;SDS011;12384;48.112;18.418;2022-07-23T03:28:59;12.93;;;12.03;;
24259;SDS011;12384;48.112;18.418;2022-07-23T03:31:30;12.47;;;11.53;;
24259;SDS011;12384;48.112;18.418;2022-07-23T03:34:00;12.67;;;11.87;;
24259;SDS011;12384;48.112;18.418;2022-07-23T03:36:29;12.97;;;11.97;;
24259;SDS011;12384;48.112;18.418;2022-07-23T03:38:58;13.13;;;11.90;;
24259;SDS011;12384;48.112;18.418;2022-07-23T03:41:28;13.63;;;12.63;;
24259;SDS011;12384;48.112;18.418;2022-07-23T03:43:56;12.97;;;12.03;;
24259;SDS011;12384;48.112;18.418;2022-07-23T03:46:25;14.00;;;12.90;;
24259;SDS011;12384;48.112;18.418;2022-07-23T03:48:56;13.50;;;12.50;;
24259;SDS011;12384;48.112;18.418;2022-07-23T03:51:25;13.27;;;12.20;;
24259;SDS011;12384;48.112;18.418;2022-07-23T03:53:54;14.70;;;13.03;;
24259;SDS011;12384;48.112;18.418;2022-07-23T03:56:23;12.77;;;11.87;;
24259;SDS011;12384;48.112;18.418;2022-07-23T03:58:52;13.07;;;12.10;;
24259;SDS011;12384;48.112;18.418;2022-07-23T04:01:22;13.27;;;12.27;;
24259;SDS011;12384;48.112;18.418;2022-07-23T04:03:51;13.10;;;11.77;;
24259;SDS011;12384;48.112;18.418;2022-07-23T04:06:22;13.60;;;12.60;;
24259;SDS011;12384;48.112;18.418;2022-07-23T04:08:52;12.90;;;12.00;;
24259;SDS011;12384;48.112;18.418;2022-07-23T04:11:22;13.20;;;11.93;;
24259;SDS011;12384;48.112;18.418;2022-07-23T04:13:51;12.23;;;11.43;;
24259;SDS011;12384;48.112;18.418;2022-07-23T04:16:20;13.10;;;12.00;;
24259;SDS011;12384;48.112;18.418;2022-07-23T04:18:49;13.33;;;12.17;;
24259;SDS011;12384;48.112;18.418;2022-07-23T04:21:22;13.23;;;12.13;;
24259;SDS011;12384;48.112;18.418;2022-07-23T04:23:51;13.60;;;12.60;;
24259;SDS011;12384;48.112;18.418;2022-07-23T04:26:20;12.83;;;11.73;;
24259;SDS011;12384;48.112;18.418;2022-07-23T04:28:49;13.60;;;12.40;;
24259;SDS011;12384;48.112;18.418;2022-07-23T04:31:18;13.80;;;12.70;;
24259;SDS011;12384;48.112;18.418;2022-07-23T04:33:47;13.60;;;12.63;;
24259;SDS011;12384;48.112;18.418;2022-07-23T04:36:16;13.33;;;12.43;;
24259;SDS011;12384;48.112;18.418;2022-07-23T04:38:46;13.63;;;12.57;;
24259;SDS011;12384;48.112;18.418;2022-07-23T04:41:19;13.43;;;12.43;;
24259;SDS011;12384;48.112;18.418;2022-07-23T04:43:48;12.67;;;11.67;;
24259;SDS011;12384;48.112;18.418;2022-07-23T04:46:17;14.00;;;12.57;;
24259;SDS011;12384;48.112;18.418;2022-07-23T04:48:49;13.37;;;12.13;;
24259;SDS011;12384;48.112;18.418;2022-07-23T04:51:18;14.73;;;13.47;;
24259;SDS011;12384;48.112;18.418;2022-07-23T04:53:48;13.57;;;12.53;;
24259;SDS011;12384;48.112;18.418;2022-07-23T04:56:18;12.37;;;11.37;;
24259;SDS011;12384;48.112;18.418;2022-07-23T04:58:47;11.47;;;10.57;;
24259;SDS011;12384;48.112;18.418;2022-07-23T05:01:16;12.40;;;11.30;;
24259;SDS011;12384;48.112;18.418;2022-07-23T05:03:45;11.38;;;10.30;;
24259;SDS011;12384;48.112;18.418;2022-07-23T05:06:15;10.90;;;9.88;;
24259;SDS011;12384;48.112;18.418;2022-07-23T05:08:45;10.60;;;8.77;;
24259;SDS011;12384;48.112;18.418;2022-07-23T05:11:16;9.05;;;8.13;;
24259;SDS011;12384;48.112;18.418;2022-07-23T05:13:52;9.30;;;8.48;;
24259;SDS011;12384;48.112;18.418;2022-07-23T05:16:21;8.57;;;7.88;;
24259;SDS011;12384;48.112;18.418;2022-07-23T05:18:53;9.10;;;8.30;;
24259;SDS011;12384;48.112;18.418;2022-07-23T05:21:22;9.03;;;8.10;;
24259;SDS011;12384;48.112;18.418;2022-07-23T05:23:53;12.60;;;8.27;;
24259;SDS011;12384;48.112;18.418;2022-07-23T05:26:22;9.32;;;8.40;;
24259;SDS011;12384;48.112;18.418;2022-07-23T05:28:51;8.95;;;8.02;;
24259;SDS011;12384;48.112;18.418;2022-07-23T05:31:20;9.75;;;8.20;;
24259;SDS011;12384;48.112;18.418;2022-07-23T05:33:50;9.93;;;8.30;;
24259;SDS011;12384;48.112;18.418;2022-07-23T05:36:19;10.27;;;8.13;;
24259;SDS011;12384;48.112;18.418;2022-07-23T05:38:53;9.95;;;8.07;;
24259;SDS011;12384;48.112;18.418;2022-07-23T05:41:23;8.98;;;8.25;;
24259;SDS011;12384;48.112;18.418;2022-07-23T05:43:52;8.70;;;7.82;;
24259;SDS011;12384;48.112;18.418;2022-07-23T05:46:21;10.55;;;9.55;;
24259;SDS011;12384;48.112;18.418;2022-07-23T05:48:55;9.52;;;8.63;;
24259;SDS011;12384;48.112;18.418;2022-07-23T05:51:54;9.52;;;8.48;;
24259;SDS011;12384;48.112;18.418;2022-07-23T05:54:35;9.95;;;8.93;;
24259;SDS011;12384;48.112;18.418;2022-07-23T05:57:05;9.85;;;8.95;;
24259;SDS011;12384;48.112;18.418;2022-07-23T05:59:34;11.60;;;10.50;;
24259;SDS011;12384;48.112;18.418;2022-07-23T06:02:04;10.90;;;9.88;;
24259;SDS011;12384;48.112;18.418;2022-07-23T06:04:34;10.40;;;9.43;;
24259;SDS011;12384;48.112;18.418;2022-07-23T06:07:32;13.20;;;8.93;;
24259;SDS011;12384;48.112;18.418;2022-07-23T06:10:04;11.75;;;9.98;;
24259;SDS011;12384;48.112;18.418;2022-07-23T06:12:33;11.15;;;8.45;;
24259;SDS011;12384;48.112;18.418;2022-07-23T06:15:03;10.25;;;9.45;;
24259;SDS011;12384;48.112;18.418;2022-07-23T06:17:37;10.25;;;9.15;;
24259;SDS011;12384;48.112;18.418;2022-07-23T06:20:07;13.45;;;9.88;;
24259;SDS011;12384;48.112;18.418;2022-07-23T06:22:38;10.02;;;9.07;;
24259;SDS011;12384;48.112;18.418;2022-07-23T06:25:09;11.20;;;10.20;;
24259;SDS011;12384;48.112;18.418;2022-07-23T06:27:45;15.68;;;10.30;;
24259;SDS011;12384;48.112;18.418;2022-07-23T06:30:14;10.73;;;9.90;;
24259;SDS011;12384;48.112;18.418;2022-07-23T06:32:44;16.85;;;10.88;;
24259;SDS011;12384;48.112;18.418;2022-07-23T06:35:14;11.43;;;10.15;;
24259;SDS011;12384;48.112;18.418;2022-07-23T06:37:46;9.68;;;8.60;;
24259;SDS011;12384;48.112;18.418;2022-07-23T06:40:16;11.50;;;8.50;;
24259;SDS011;12384;48.112;18.418;2022-07-23T06:42:45;9.13;;;8.23;;
24259;SDS011;12384;48.112;18.418;2022-07-23T06:45:20;8.30;;;7.53;;
24259;SDS011;12384;48.112;18.418;2022-07-23T06:47:49;9.70;;;8.00;;
24259;SDS011;12384;48.112;18.418;2022-07-23T06:50:18;8.20;;;7.50;;
24259;SDS011;12384;48.112;18.418;2022-07-23T06:52:48;9.60;;;8.73;;
24259;SDS011;12384;48.112;18.418;2022-07-23T06:55:18;10.38;;;9.48;;
24259;SDS011;12384;48.112;18.418;2022-07-23T06:57:47;11.30;;;10.27;;
24259;SDS011;12384;48.112;18.418;2022-07-23T07:00:16;11.13;;;10.13;;
24259;SDS011;12384;48.112;18.418;2022-07-23T07:02:45;11.38;;;9.90;;
24259;SDS011;12384;48.112;18.418;2022-07-23T07:05:14;12.35;;;11.07;;
24259;SDS011;12384;48.112;18.418;2022-07-23T07:07:42;13.50;;;11.75;;
24259;SDS011;12384;48.112;18.418;2022-07-23T07:10:11;13.68;;;12.30;;
24259;SDS011;12384;48.112;18.418;2022-07-23T07:12:43;18.60;;;11.63;;
24259;SDS011;12384;48.112;18.418;2022-07-23T07:15:11;14.82;;;13.45;;
24259;SDS011;12384;48.112;18.418;2022-07-23T07:17:40;12.70;;;11.60;;
24259;SDS011;12384;48.112;18.418;2022-07-23T07:20:10;15.07;;;12.05;;
24259;SDS011;12384;48.112;18.418;2022-07-23T07:22:39;11.75;;;10.55;;
24259;SDS011;12384;48.112;18.418;2022-07-23T07:25:08;13.77;;;12.55;;
24259;SDS011;12384;48.112;18.418;2022-07-23T07:27:37;12.05;;;11.05;;
24259;SDS011;12384;48.112;18.418;2022-07-23T07:30:08;11.32;;;10.35;;
24259;SDS011;12384;48.112;18.418;2022-07-23T07:32:39;11.43;;;10.43;;
24259;SDS011;12384;48.112;18.418;2022-07-23T07:35:24;12.48;;;10.27;;
24259;SDS011;12384;48.112;18.418;2022-07-23T07:37:53;13.23;;;10.02;;
24259;SDS011;12384;48.112;18.418;2022-07-23T07:40:22;22.77;;;12.02;;
24259;SDS011;12384;48.112;18.418;2022-07-23T07:42:57;10.02;;;8.98;;
24259;SDS011;12384;48.112;18.418;2022-07-23T07:45:28;12.98;;;11.68;;
24259;SDS011;12384;48.112;18.418;2022-07-23T07:47:56;13.35;;;12.00;;
24259;SDS011;12384;48.112;18.418;2022-07-23T07:50:25;11.63;;;10.43;;
24259;SDS011;12384;48.112;18.418;2022-07-23T07:52:55;11.52;;;10.27;;
24259;SDS011;12384;48.112;18.418;2022-07-23T07:55:23;10.18;;;8.77;;
24259;SDS011;12384;48.112;18.418;2022-07-23T07:57:53;9.60;;;8.80;;
24259;SDS011;12384;48.112;18.418;2022-07-23T08:00:22;9.73;;;8.77;;
24259;SDS011;12384;48.112;18.418;2022-07-23T08:02:53;10.57;;;9.75;;
24259;SDS011;12384;48.112;18.418;2022-07-23T08:05:25;9.77;;;8.88;;
24259;SDS011;12384;48.112;18.418;2022-07-23T08:07:55;9.23;;;8.52;;
24259;SDS011;12384;48.112;18.418;2022-07-23T08:10:26;12.02;;;8.80;;
24259;SDS011;12384;48.112;18.418;2022-07-23T08:12:56;9.55;;;8.75;;
24259;SDS011;12384;48.112;18.418;2022-07-23T08:15:28;12.30;;;8.05;;
24259;SDS011;12384;48.112;18.418;2022-07-23T08:17:59;13.05;;;9.77;;
24259;SDS011;12384;48.112;18.418;2022-07-23T08:20:28;11.32;;;9.80;;
24259;SDS011;12384;48.112;18.418;2022-07-23T08:22:58;12.13;;;9.65;;
24259;SDS011;12384;48.112;18.418;2022-07-23T08:25:28;8.55;;;7.85;;
24259;SDS011;12384;48.112;18.418;2022-07-23T08:27:58;11.32;;;10.20;;
24259;SDS011;12384;48.112;18.418;2022-07-23T08:30:28;10.90;;;10.02;;
24259;SDS011;12384;48.112;18.418;2022-07-23T08:33:00;11.00;;;9.20;;
24259;SDS011;12384;48.112;18.418;2022-07-23T08:35:32;11.30;;;10.27;;
24259;SDS011;12384;48.112;18.418;2022-07-23T08:38:03;13.75;;;10.00;;
24259;SDS011;12384;48.112;18.418;2022-07-23T08:40:33;13.52;;;12.52;;
24259;SDS011;12384;48.112;18.418;2022-07-23T08:43:09;11.52;;;10.63;;
24259;SDS011;12384;48.112;18.418;2022-07-23T08:45:40;13.30;;;12.00;;
24259;SDS011;12384;48.112;18.418;2022-07-23T08:48:12;18.77;;;16.83;;
24259;SDS011;12384;48.112;18.418;2022-07-23T08:50:43;14.20;;;12.80;;
24259;SDS011;12384;48.112;18.418;2022-07-23T08:53:13;13.10;;;11.90;;
24259;SDS011;12384;48.112;18.418;2022-07-23T08:55:43;14.15;;;12.70;;
24259;SDS011;12384;48.112;18.418;2022-07-23T08:58:13;11.63;;;10.63;;
24259;SDS011;12384;48.112;18.418;2022-07-23T09:00:42;11.82;;;10.70;;
24259;SDS011;12384;48.112;18.418;2022-07-23T09:03:15;11.20;;;10.20;;
24259;SDS011;12384;48.112;18.418;2022-07-23T09:05:47;13.32;;;12.23;;
24259;SDS011;12384;48.112;18.418;2022-07-23T09:08:18;10.90;;;10.20;;
24259;SDS011;12384;48.112;18.418;2022-07-23T09:10:49;10.18;;;9.35;;
24259;SDS011;12384;48.112;18.418;2022-07-23T09:13:28;19.40;;;9.20;;
24259;SDS011;12384;48.112;18.418;2022-07-23T09:15:59;12.15;;;10.23;;
24259;SDS011;12384;48.112;18.418;2022-07-23T09:18:33;11.77;;;8.73;;
24259;SDS011;12384;48.112;18.418;2022-07-23T09:21:16;9.75;;;8.80;;
24259;SDS011;12384;48.112;18.418;2022-07-23T09:23:48;9.07;;;8.20;;
24259;SDS011;12384;48.112;18.418;2022-07-23T09:26:29;17.65;;;9.40;;
24259;SDS011;12384;48.112;18.418;2022-07-23T09:29:01;11.10;;;10.20;;
24259;SDS011;12384;48.112;18.418;2022-07-23T09:31:33;12.10;;;10.93;;
24259;SDS011;12384;48.112;18.418;2022-07-23T09:34:11;12.88;;;11.98;;
24259;SDS011;12384;48.112;18.418;2022-07-23T09:36:42;12.73;;;11.82;;
24259;SDS011;12384;48.112;18.418;2022-07-23T09:39:11;10.65;;;9.95;;
24259;SDS011;12384;48.112;18.418;2022-07-23T09:41:41;12.63;;;11.63;;
24259;SDS011;12384;48.112;18.418;2022-07-23T09:44:13;12.52;;;11.50;;
24259;SDS011;12384;48.112;18.418;2022-07-23T09:46:44;12.15;;;11.25;;
24259;SDS011;12384;48.112;18.418;2022-07-23T09:49:19;13.18;;;11.68;;
24259;SDS011;12384;48.112;18.418;2022-07-23T09:51:50;13.70;;;12.18;;
24259;SDS011;12384;48.112;18.418;2022-07-23T09:54:22;11.63;;;10.85;;
24259;SDS011;12384;48.112;18.418;2022-07-23T09:56:54;12.18;;;11.10;;
24259;SDS011;12384;48.112;18.418;2022-07-23T09:59:25;12.10;;;11.23;;
24259;SDS011;12384;48.112;18.418;2022-07-23T10:01:55;12.35;;;11.43;;
24259;SDS011;12384;48.112;18.418;2022-07-23T10:04:32;12.57;;;11.75;;
24259;SDS011;12384;48.112;18.418;2022-07-23T10:07:06;11.43;;;10.32;;
24259;SDS011;12384;48.112;18.418;2022-07-23T10:09:57;12.45;;;11.27;;
24259;SDS011;12384;48.112;18.418;2022-07-23T10:12:43;13.82;;;12.50;;
24259;SDS011;12384;48.112;18.418;2022-07-23T10:15:22;13.35;;;12.00;;
24259;SDS011;12384;48.112;18.418;2022-07-23T10:17:52;12.13;;;11.02;;
24259;SDS011;12384;48.112;18.418;2022-07-23T10:20:23;11.45;;;10.68;;
24259;SDS011;12384;48.112;18.418;2022-07-23T10:22:54;13.10;;;11.15;;
24259;SDS011;12384;48.112;18.418;2022-07-23T10:25:32;14.43;;;11.52;;
24259;SDS011;12384;48.112;18.418;2022-07-23T10:31:14;11.75;;;10.98;;
24259;SDS011;12384;48.112;18.418;2022-07-23T10:34:14;12.77;;;11.95;;
24259;SDS011;12384;48.112;18.418;2022-07-23T10:36:52;12.63;;;11.63;;
24259;SDS011;12384;48.112;18.418;2022-07-23T10:39:26;12.90;;;11.60;;
24259;SDS011;12384;48.112;18.418;2022-07-23T10:42:07;14.10;;;12.70;;
24259;SDS011;12384;48.112;18.418;2022-07-23T10:44:38;13.55;;;11.88;;
24259;SDS011;12384;48.112;18.418;2022-07-23T10:47:09;14.70;;;13.27;;
24259;SDS011;12384;48.112;18.418;2022-07-23T10:55:40;11.38;;;10.63;;
24259;SDS011;12384;48.112;18.418;2022-07-23T10:58:11;12.10;;;11.20;;
24259;SDS011;12384;48.112;18.418;2022-07-23T11:00:46;13.40;;;12.30;;
24259;SDS011;12384;48.112;18.418;2022-07-23T11:03:28;13.00;;;12.00;;
24259;SDS011;12384;48.112;18.418;2022-07-23T11:06:04;13.10;;;12.07;;
24259;SDS011;12384;48.112;18.418;2022-07-23T11:08:35;12.73;;;11.68;;
24259;SDS011;12384;48.112;18.418;2022-07-23T11:11:07;15.93;;;11.25;;
24259;SDS011;12384;48.112;18.418;2022-07-23T11:13:39;11.73;;;10.63;;
24259;SDS011;12384;48.112;18.418;2022-07-23T11:19:13;13.23;;;12.13;;
24259;SDS011;12384;48.112;18.418;2022-07-23T11:21:46;12.98;;;11.70;;
24259;SDS011;12384;48.112;18.418;2022-07-23T11:24:18;13.15;;;11.93;;
24259;SDS011;12384;48.112;18.418;2022-07-23T11:26:57;14.32;;;12.65;;
24259;SDS011;12384;48.112;18.418;2022-07-23T11:29:41;11.88;;;10.90;;
24259;SDS011;12384;48.112;18.418;2022-07-23T11:32:34;14.10;;;12.77;;
24259;SDS011;12384;48.112;18.418;2022-07-23T11:35:22;11.80;;;10.80;;
24259;SDS011;12384;48.112;18.418;2022-07-23T11:37:54;11.38;;;10.38;;
24259;SDS011;12384;48.112;18.418;2022-07-23T11:40:33;10.70;;;9.90;;
24259;SDS011;12384;48.112;18.418;2022-07-23T11:43:03;12.10;;;11.23;;
24259;SDS011;12384;48.112;18.418;2022-07-23T11:45:36;12.73;;;11.13;;
24259;SDS011;12384;48.112;18.418;2022-07-23T11:48:06;13.18;;;12.00;;
24259;SDS011;12384;48.112;18.418;2022-07-23T11:50:37;13.85;;;12.52;;
24259;SDS011;12384;48.112;18.418;2022-07-23T11:53:05;13.18;;;12.13;;
24259;SDS011;12384;48.112;18.418;2022-07-23T11:55:36;13.52;;;12.32;;
24259;SDS011;12384;48.112;18.418;2022-07-23T11:58:05;13.75;;;12.85;;
24259;SDS011;12384;48.112;18.418;2022-07-23T12:00:34;13.80;;;12.80;;
24259;SDS011;12384;48.112;18.418;2022-07-23T12:03:06;14.10;;;12.88;;
24259;SDS011;12384;48.112;18.418;2022-07-23T12:05:36;14.27;;;12.98;;
24259;SDS011;12384;48.112;18.418;2022-07-23T12:08:07;12.65;;;11.68;;
24259;SDS011;12384;48.112;18.418;2022-07-23T12:10:39;14.95;;;13.85;;
24259;SDS011;12384;48.112;18.418;2022-07-23T12:13:09;14.73;;;13.43;;
24259;SDS011;12384;48.112;18.418;2022-07-23T12:15:41;14.45;;;13.40;;
24259;SDS011;12384;48.112;18.418;2022-07-23T12:18:12;14.52;;;13.55;;
24259;SDS011;12384;48.112;18.418;2022-07-23T12:20:45;14.48;;;13.25;;
24259;SDS011;12384;48.112;18.418;2022-07-23T12:23:15;15.13;;;14.13;;
24259;SDS011;12384;48.112;18.418;2022-07-23T12:25:49;16.40;;;15.10;;
24259;SDS011;12384;48.112;18.418;2022-07-23T12:28:19;16.05;;;14.77;;
24259;SDS011;12384;48.112;18.418;2022-07-23T12:30:49;15.88;;;14.68;;
24259;SDS011;12384;48.112;18.418;2022-07-23T12:33:21;15.25;;;14.15;;
24259;SDS011;12384;48.112;18.418;2022-07-23T12:35:52;16.00;;;14.90;;
24259;SDS011;12384;48.112;18.418;2022-07-23T12:38:22;16.00;;;14.70;;
24259;SDS011;12384;48.112;18.418;2022-07-23T12:40:54;16.45;;;15.15;;
24259;SDS011;12384;48.112;18.418;2022-07-23T12:43:25;15.77;;;14.68;;
24259;SDS011;12384;48.112;18.418;2022-07-23T12:45:57;16.10;;;14.48;;
24259;SDS011;12384;48.112;18.418;2022-07-23T12:48:31;15.75;;;14.27;;
24259;SDS011;12384;48.112;18.418;2022-07-23T12:51:04;17.05;;;15.40;;
24259;SDS011;12384;48.112;18.418;2022-07-23T12:53:37;17.58;;;16.20;;
24259;SDS011;12384;48.112;18.418;2022-07-23T12:56:09;17.40;;;15.95;;
24259;SDS011;12384;48.112;18.418;2022-07-23T12:58:43;19.02;;;17.50;;
24259;SDS011;12384;48.112;18.418;2022-07-23T13:01:28;20.63;;;18.83;;
24259;SDS011;12384;48.112;18.418;2022-07-23T13:04:00;19.75;;;17.92;;
24259;SDS011;12384;48.112;18.418;2022-07-23T13:06:38;18.92;;;17.50;;
24259;SDS011;12384;48.112;18.418;2022-07-23T13:09:10;20.25;;;18.40;;
24259;SDS011;12384;48.112;18.418;2022-07-23T13:11:43;19.63;;;17.85;;
24259;SDS011;12384;48.112;18.418;2022-07-23T13:14:32;19.63;;;18.05;;
24259;SDS011;12384;48.112;18.418;2022-07-23T13:17:01;19.85;;;18.40;;
24259;SDS011;12384;48.112;18.418;2022-07-23T13:19:32;18.95;;;17.45;;
24259;SDS011;12384;48.112;18.418;2022-07-23T13:22:01;20.77;;;19.10;;
24259;SDS011;12384;48.112;18.418;2022-07-23T13:24:35;21.20;;;19.40;;
24259;SDS011;12384;48.112;18.418;2022-07-23T13:27:07;19.85;;;18.15;;
24259;SDS011;12384;48.112;18.418;2022-07-23T13:29:38;22.42;;;20.02;;
24259;SDS011;12384;48.112;18.418;2022-07-23T13:32:08;20.13;;;18.40;;
24259;SDS011;12384;48.112;18.418;2022-07-23T13:34:39;20.85;;;18.92;;
24259;SDS011;12384;48.112;18.418;2022-07-23T13:37:08;21.30;;;19.58;;
24259;SDS011;12384;48.112;18.418;2022-07-23T13:39:37;21.20;;;19.52;;
24259;SDS011;12384;48.112;18.418;2022-07-23T13:42:09;21.25;;;19.52;;
24259;SDS011;12384;48.112;18.418;2022-07-23T13:44:38;19.30;;;17.55;;
24259;SDS011;12384;48.112;18.418;2022-07-23T13:47:07;17.40;;;16.20;;
24259;SDS011;12384;48.112;18.418;2022-07-23T13:49:36;19.67;;;18.25;;
24259;SDS011;12384;48.112;18.418;2022-07-23T13:52:05;21.00;;;19.30;;
24259;SDS011;12384;48.112;18.418;2022-07-23T13:54:34;19.13;;;17.80;;
24259;SDS011;12384;48.112;18.418;2022-07-23T13:57:03;19.30;;;17.95;;
24259;SDS011;12384;48.112;18.418;2022-07-23T13:59:33;18.58;;;16.98;;
24259;SDS011;12384;48.112;18.418;2022-07-23T14:02:03;18.98;;;17.23;;
24259;SDS011;12384;48.112;18.418;2022-07-23T14:04:46;16.85;;;15.68;;
24259;SDS011;12384;48.112;18.418;2022-07-23T14:07:17;16.20;;;14.82;;
24259;SDS011;12384;48.112;18.418;2022-07-23T14:09:47;15.73;;;14.45;;
24259;SDS011;12384;48.112;18.418;2022-07-23T14:12:17;15.82;;;14.63;;
24259;SDS011;12384;48.112;18.418;2022-07-23T14:14:50;14.98;;;13.57;;
24259;SDS011;12384;48.112;18.418;2022-07-23T14:17:19;12.80;;;11.82;;
24259;SDS011;12384;48.112;18.418;2022-07-23T14:19:53;15.48;;;14.23;;
24259;SDS011;12384;48.112;18.418;2022-07-23T14:22:22;16.75;;;15.35;;
24259;SDS011;12384;48.112;18.418;2022-07-23T14:24:51;15.60;;;14.40;;
24259;SDS011;12384;48.112;18.418;2022-07-23T14:27:25;16.10;;;15.00;;
24259;SDS011;12384;48.112;18.418;2022-07-23T14:29:56;15.43;;;14.32;;
24259;SDS011;12384;48.112;18.418;2022-07-23T14:32:25;13.95;;;12.98;;
24259;SDS011;12384;48.112;18.418;2022-07-23T14:34:55;14.82;;;13.55;;
24259;SDS011;12384;48.112;18.418;2022-07-23T14:37:24;15.05;;;13.93;;
24259;SDS011;12384;48.112;18.418;2022-07-23T14:39:53;13.98;;;12.70;;
24259;SDS011;12384;48.112;18.418;2022-07-23T14:42:26;15.30;;;13.48;;
24259;SDS011;12384;48.112;18.418;2022-07-23T14:44:59;13.48;;;12.27;;
24259;SDS011;12384;48.112;18.418;2022-07-23T14:47:36;13.00;;;11.75;;